Time,TemperatureF,DewpointF,PressureIn,WindDirection,WindDirectionDegrees,WindSpeedMPH,WindSpeedGustMPH,Humidity,HourlyPrecipIn,Conditions,Clouds,dailyrainin,SoftwareType,DateUTC
2013-03-18 00:12:00,35.2,27.0,25.43,NNE,24,4.0,-999.0,73,-99.99,,,0.00,weatherlink.com 1.10,2013-03-18 04:12:00,
2013-03-18 00:27:00,35.3,27.0,25.43,NE,42,5.0,-999.0,73,-99.99,,,0.00,weatherlink.com 1.10,2013-03-18 04:27:00,
2013-03-18 00:42:00,35.4,28.0,25.43,NNE,33,2.0,-999.0,73,-99.99,,,0.00,weatherlink.com 1.10,2013-03-18 04:42:00,
2013-03-18 00:57:00,35.5,28.0,25.42,East,89,3.0,-999.0,74,-99.99,,,0.00,weatherlink.com 1.10,2013-03-18 04:57:00,
2013-03-18 01:12:00,35.7,29.0,25.42,NE,42,3.0,-999.0,75,-99.99,,,0.00,weatherlink.com 1.10,2013-03-18 05:12:00,
2013-03-18 01:27:00,35.5,30.0,25.42,ENE,60,2.0,-999.0,79,-99.99,,,0.00,weatherlink.com 1.10,2013-03-18 05:27:00,
2013-03-18 01:57:00,35.2,31.0,25.42,ENE,60,2.0,-999.0,85,-99.99,,,0.01,weatherlink.com 1.10,2013-03-18 05:57:00,
2013-03-18 02:12:00,35.3,32.0,25.42,East,91,3.0,-999.0,88,-99.99,,,0.02,weatherlink.com 1.10,2013-03-18 06:12:00,
2013-03-18 02:27:00,35.3,33.0,25.41,ENE,78,3.0,-999.0,90,-99.99,,,0.03,weatherlink.com 1.10,2013-03-18 06:27:00,
2013-03-18 02:42:00,35.2,33.0,25.42,ENE,63,3.0,-999.0,91,-99.99,,,0.04,weatherlink.com 1.10,2013-03-18 06:42:00,
2013-03-18 02:57:00,35.1,33.0,25.42,East,90,7.0,-999.0,92,-99.99,,,0.06,weatherlink.com 1.10,2013-03-18 06:57:00,
2013-03-18 03:12:00,34.9,33.0,25.42,East,86,3.0,-999.0,92,-99.99,,,0.08,weatherlink.com 1.10,2013-03-18 07:12:00,
2013-03-18 03:27:00,34.8,33.0,25.42,ENE,61,1.0,-999.0,93,-99.99,,,0.10,weatherlink.com 1.10,2013-03-18 07:27:00,
2013-03-18 03:42:00,34.7,33.0,25.42,ENE,76,1.0,-999.0,93,-99.99,,,0.11,weatherlink.com 1.10,2013-03-18 07:42:00,
2013-03-18 03:57:00,34.5,33.0,25.42,ESE,105,1.0,-999.0,93,-99.99,,,0.14,weatherlink.com 1.10,2013-03-18 07:57:00,
2013-03-18 04:12:00,34.4,33.0,25.42,NE,55,4.0,-999.0,93,-99.99,,,0.17,weatherlink.com 1.10,2013-03-18 08:12:00,
2013-03-18 04:27:00,34.4,33.0,25.42,ENE,59,6.0,-999.0,94,-99.99,,,0.20,weatherlink.com 1.10,2013-03-18 08:27:00,
2013-03-18 04:42:00,34.3,33.0,25.41,East,98,6.0,-999.0,94,-99.99,,,0.22,weatherlink.com 1.10,2013-03-18 08:42:00,
2013-03-18 04:57:00,34.2,33.0,25.42,East,83,1.0,-999.0,94,-99.99,,,0.24,weatherlink.com 1.10,2013-03-18 08:57:00,
2013-03-18 05:12:00,34.3,33.0,25.42,ENE,76,5.0,-999.0,94,-99.99,,,0.25,weatherlink.com 1.10,2013-03-18 09:12:00,
2013-03-18 05:27:00,34.3,33.0,25.41,East,88,5.0,-999.0,94,-99.99,,,0.27,weatherlink.com 1.10,2013-03-18 09:27:00,
2013-03-18 05:42:00,34.3,33.0,25.41,NE,56,4.0,-999.0,94,-99.99,,,0.28,weatherlink.com 1.10,2013-03-18 09:42:00,
2013-03-18 05:57:00,34.3,33.0,25.41,East,97,6.0,-999.0,94,-99.99,,,0.28,weatherlink.com 1.10,2013-03-18 09:57:00,
2013-03-18 06:12:00,34.3,33.0,25.42,East,88,5.0,-999.0,94,-99.99,,,0.28,weatherlink.com 1.10,2013-03-18 10:12:00,
2013-03-18 06:27:00,34.2,33.0,25.42,East,82,4.0,-999.0,94,-99.99,,,0.31,weatherlink.com 1.10,2013-03-18 10:27:00,
2013-03-18 06:42:00,34.1,33.0,25.42,ENE,78,5.0,-999.0,94,-99.99,,,0.31,weatherlink.com 1.10,2013-03-18 10:42:00,
2013-03-18 06:57:00,34.1,33.0,25.42,ENE,59,3.0,-999.0,94,-99.99,,,0.31,weatherlink.com 1.10,2013-03-18 10:57:00,
2013-03-18 07:12:00,34.1,32.0,25.42,East,84,6.0,-999.0,93,-99.99,,,0.31,weatherlink.com 1.10,2013-03-18 11:12:00,
2013-03-18 07:27:00,34.2,32.0,25.41,ESE,109,5.0,-999.0,93,-99.99,,,0.31,weatherlink.com 1.10,2013-03-18 11:27:00,
2013-03-18 07:42:00,34.4,32.0,25.41,NE,45,5.0,-999.0,92,-99.99,,,0.31,weatherlink.com 1.10,2013-03-18 11:42:00,
2013-03-18 07:57:00,34.8,32.0,25.41,ENE,74,8.0,-999.0,90,-99.99,,,0.31,weatherlink.com 1.10,2013-03-18 11:57:00,
2013-03-18 08:12:00,35.5,33.0,25.41,East,86,3.0,-999.0,89,-99.99,,,0.31,weatherlink.com 1.10,2013-03-18 12:12:00,
2013-03-18 08:27:00,36.0,33.0,25.40,East,80,5.0,-999.0,89,-99.99,,,0.31,weatherlink.com 1.10,2013-03-18 12:27:00,
2013-03-18 08:42:00,37.1,34.0,25.40,East,95,5.0,-999.0,88,-99.99,,,0.31,weatherlink.com 1.10,2013-03-18 12:42:00,
2013-03-18 08:57:00,38.1,35.0,25.42,East,87,4.0,-999.0,87,-99.99,,,0.32,weatherlink.com 1.10,2013-03-18 12:57:00,
2013-03-18 09:12:00,39.1,35.0,25.42,ENE,65,6.0,-999.0,85,-99.99,,,0.32,weatherlink.com 1.10,2013-03-18 13:12:00,
2013-03-18 09:27:00,39.4,35.0,25.45,East,88,2.0,-999.0,84,-99.99,,,0.32,weatherlink.com 1.10,2013-03-18 13:27:00,
2013-03-18 09:43:00,39.8,35.0,25.44,East,83,3.0,-999.0,84,-99.99,,,0.32,weatherlink.com 1.10,2013-03-18 13:43:00,
2013-03-18 09:58:00,40.4,36.0,25.43,SE,136,0.0,-999.0,83,-99.99,,,0.32,weatherlink.com 1.10,2013-03-18 13:58:00,
2013-03-18 10:13:00,40.8,36.0,25.45,East,86,8.0,-999.0,82,-99.99,,,0.32,weatherlink.com 1.10,2013-03-18 14:13:00,
2013-03-18 10:28:00,41.1,36.0,25.43,ESE,122,7.0,-999.0,81,-99.99,,,0.32,weatherlink.com 1.10,2013-03-18 14:28:00,
2013-03-18 10:43:00,40.9,36.0,25.42,East,101,3.0,-999.0,83,-99.99,,,0.32,weatherlink.com 1.10,2013-03-18 14:43:00,
2013-03-18 10:58:00,39.9,36.0,25.41,SE,141,4.0,-999.0,86,-99.99,,,0.37,weatherlink.com 1.10,2013-03-18 14:58:00,
2013-03-18 11:13:00,38.8,36.0,25.41,East,92,5.0,-999.0,90,-99.99,,,0.46,weatherlink.com 1.10,2013-03-18 15:13:00,
2013-03-18 11:28:00,38.2,36.0,25.44,East,90,3.0,-999.0,92,-99.99,,,0.55,weatherlink.com 1.10,2013-03-18 15:28:00,
2013-03-18 11:43:00,37.9,36.0,25.45,ENE,63,8.0,-999.0,93,-99.99,,,0.64,weatherlink.com 1.10,2013-03-18 15:43:00,
2013-03-18 11:58:00,37.8,36.0,25.45,SE,141,5.0,-999.0,94,-99.99,,,0.72,weatherlink.com 1.10,2013-03-18 15:58:00,
2013-03-18 12:13:00,37.5,36.0,25.47,ESE,123,3.0,-999.0,94,-99.99,,,0.77,weatherlink.com 1.10,2013-03-18 16:13:00,
2013-03-18 12:28:00,37.1,36.0,25.47,SE,146,9.0,-999.0,95,-99.99,,,0.83,weatherlink.com 1.10,2013-03-18 16:28:00,
2013-03-18 12:43:00,37.0,36.0,25.44,South,186,5.0,-999.0,95,-99.99,,,0.89,weatherlink.com 1.10,2013-03-18 16:43:00,
2013-03-18 12:58:00,37.3,36.0,25.41,ENE,78,2.0,-999.0,96,-99.99,,,0.91,weatherlink.com 1.10,2013-03-18 16:58:00,
2013-03-18 13:13:00,38.0,37.0,25.42,SW,214,1.0,-999.0,96,-99.99,,,0.92,weatherlink.com 1.10,2013-03-18 17:13:00,
2013-03-18 13:28:00,38.6,38.0,25.41,South,176,0.0,-999.0,96,-99.99,,,0.93,weatherlink.com 1.10,2013-03-18 17:28:00,
2013-03-18 13:43:00,39.1,38.0,25.40,East,98,3.0,-999.0,96,-99.99,,,0.93,weatherlink.com 1.10,2013-03-18 17:43:00,
2013-03-18 13:58:00,39.6,38.0,25.38,SSE,148,4.0,-999.0,95,-99.99,,,0.93,weatherlink.com 1.10,2013-03-18 17:58:00,
2013-03-18 14:13:00,39.9,39.0,25.39,ENE,76,4.0,-999.0,95,-99.99,,,0.93,weatherlink.com 1.10,2013-03-18 18:13:00,
2013-03-18 14:28:00,40.3,39.0,25.40,East,88,2.0,-999.0,95,-99.99,,,0.93,weatherlink.com 1.10,2013-03-18 18:28:00,
2013-03-18 14:43:00,40.4,39.0,25.38,SSE,163,3.0,-999.0,94,-99.99,,,0.94,weatherlink.com 1.10,2013-03-18 18:43:00,
2013-03-18 15:13:00,41.3,40.0,25.39,SE,133,4.0,-999.0,95,-99.99,,,0.97,weatherlink.com 1.10,2013-03-18 19:13:00,
2013-03-18 15:28:00,42.2,41.0,25.43,SW,216,6.0,-999.0,95,-99.99,,,0.97,weatherlink.com 1.10,2013-03-18 19:28:00,
2013-03-18 15:43:00,42.5,41.0,25.45,SSE,153,5.0,-999.0,94,-99.99,,,0.97,weatherlink.com 1.10,2013-03-18 19:43:00,
2013-03-18 15:58:00,42.7,41.0,25.42,SW,215,3.0,-999.0,94,-99.99,,,0.97,weatherlink.com 1.10,2013-03-18 19:58:00,
2013-03-18 16:13:00,43.1,42.0,23.91,East,86,1.0,-999.0,94,-99.99,,,0.97,weatherlink.com 1.10,2013-03-18 20:13:00,
2013-03-18 16:28:00,44.2,43.0,23.14,SE,138,0.0,-999.0,94,-99.99,,,0.97,weatherlink.com 1.10,2013-03-18 20:28:00,
2013-03-18 16:43:00,44.7,43.0,24.68,ENE,74,0.0,-999.0,93,-99.99,,,0.97,weatherlink.com 1.10,2013-03-18 20:43:00,
2013-03-18 16:58:00,45.5,43.0,25.44,SE,136,6.0,-999.0,92,-99.99,,,0.97,weatherlink.com 1.10,2013-03-18 20:58:00,
2013-03-18 17:13:00,46.2,44.0,24.68,ESE,109,1.0,-999.0,90,-99.99,,,0.97,weatherlink.com 1.10,2013-03-18 21:13:00,
2013-03-18 17:28:00,47.0,44.0,23.91,SW,225,2.0,-999.0,88,-99.99,,,0.97,weatherlink.com 1.10,2013-03-18 21:28:00,
2013-03-18 17:58:00,47.8,45.0,22.36,SE,136,0.0,-999.0,89,-99.99,,,0.97,weatherlink.com 1.10,2013-03-18 21:58:00,
2013-03-18 18:13:00,47.8,45.0,23.90,ESE,119,0.0,-999.0,88,-99.99,,,0.97,weatherlink.com 1.10,2013-03-18 22:13:00,
2013-03-18 18:28:00,47.7,44.0,23.90,ESE,119,1.0,-999.0,88,-99.99,,,0.97,weatherlink.com 1.10,2013-03-18 22:28:00,
2013-03-18 18:43:00,47.4,44.0,23.15,East,86,0.0,-999.0,89,-99.99,,,0.97,weatherlink.com 1.10,2013-03-18 22:43:00,
2013-03-18 18:58:00,47.3,44.0,24.68,East,86,0.0,-999.0,89,-99.99,,,0.97,weatherlink.com 1.10,2013-03-18 22:58:00,
2013-03-18 19:13:00,47.3,44.0,23.91,SE,140,3.0,-999.0,89,-99.99,,,0.97,weatherlink.com 1.10,2013-03-18 23:13:00,
2013-03-18 19:28:00,47.3,44.0,23.92,ESE,105,1.0,-999.0,88,-99.99,,,0.97,weatherlink.com 1.10,2013-03-18 23:28:00,
2013-03-18 19:43:00,47.2,43.0,24.69,ESE,111,1.0,-999.0,86,-99.99,,,0.97,weatherlink.com 1.10,2013-03-18 23:43:00,
2013-03-18 19:58:00,47.0,43.0,25.46,SE,128,3.0,-999.0,87,-99.99,,,0.97,weatherlink.com 1.10,2013-03-18 23:58:00,
2013-03-18 20:13:00,47.0,43.0,25.46,ESE,119,0.0,-999.0,85,-99.99,,,0.97,weatherlink.com 1.10,2013-03-19 00:13:00,
2013-03-18 20:28:00,47.1,43.0,25.46,ESE,119,2.0,-999.0,85,-99.99,,,0.97,weatherlink.com 1.10,2013-03-19 00:28:00,
2013-03-18 20:43:00,47.1,43.0,25.46,SE,142,0.0,-999.0,84,-99.99,,,0.97,weatherlink.com 1.10,2013-03-19 00:43:00,
2013-03-18 20:58:00,47.0,43.0,25.46,East,92,1.0,-999.0,85,-99.99,,,0.97,weatherlink.com 1.10,2013-03-19 00:58:00,
2013-03-18 21:13:00,47.1,42.0,25.45,SSE,165,0.0,-999.0,83,-99.99,,,0.97,weatherlink.com 1.10,2013-03-19 01:13:00,
2013-03-18 21:28:00,46.9,43.0,25.46,South,188,0.0,-999.0,85,-99.99,,,0.97,weatherlink.com 1.10,2013-03-19 01:28:00,
2013-03-18 21:43:00,46.6,42.0,25.46,South,188,0.0,-999.0,85,-99.99,,,0.97,weatherlink.com 1.10,2013-03-19 01:43:00,
2013-03-18 21:58:00,46.6,42.0,25.46,South,188,1.0,-999.0,85,-99.99,,,0.97,weatherlink.com 1.10,2013-03-19 01:58:00,
2013-03-18 22:13:00,46.4,43.0,25.47,South,188,0.0,-999.0,86,-99.99,,,0.97,weatherlink.com 1.10,2013-03-19 02:13:00,
2013-03-18 22:28:00,46.3,42.0,25.46,South,186,0.0,-999.0,86,-99.99,,,0.97,weatherlink.com 1.10,2013-03-19 02:28:00,
2013-03-18 22:43:00,46.3,43.0,25.43,South,186,0.0,-999.0,87,-99.99,,,0.97,weatherlink.com 1.10,2013-03-19 02:43:00,
2013-03-18 22:58:00,46.0,43.0,25.44,South,186,0.0,-999.0,88,-99.99,,,0.97,weatherlink.com 1.10,2013-03-19 02:58:00,
2013-03-18 23:13:00,46.1,43.0,25.45,South,186,0.0,-999.0,88,-99.99,,,0.97,weatherlink.com 1.10,2013-03-19 03:13:00,
2013-03-18 23:28:00,46.5,43.0,25.45,South,186,1.0,-999.0,87,-99.99,,,0.97,weatherlink.com 1.10,2013-03-19 03:28:00,
2013-03-18 23:43:00,46.5,44.0,25.44,South,187,1.0,-999.0,89,-99.99,,,0.97,weatherlink.com 1.10,2013-03-19 03:43:00,
2013-03-18 23:58:00,46.4,44.0,25.43,South,188,2.0,-999.0,92,-99.99,,,0.97,weatherlink.com 1.10,2013-03-19 03:58:00,